Time;durP1;ratioP1;P1;durP2;ratioP2;P2;SDS_P1;SDS_P2;PMS_P1;PMS_P2;Temp;Humidity;BMP_temperature;BMP_pressure;BME280_temperature;BME280_humidity;BME280_pressure;Samples;Min_cycle;Max_cycle;Signal;HPM_P1;HPM_P2
2021/01/06 00:00:58;;;;;;;16.55;11.48;;;20.10;42.70;;;;;;5081884;28;20895;-60
2021/01/06 00:03:26;;;;;;;13.93;11.20;;;20.00;42.60;;;;;;5059344;28;20029;-59
2021/01/06 00:06:06;;;;;;;15.48;11.18;;;20.00;42.80;;;;;;5081504;28;20147;-59
2021/01/06 00:08:32;;;;;;;12.70;10.60;;;20.00;43.00;;;;;;5077116;28;20028;-59
2021/01/06 00:10:59;;;;;;;12.68;10.48;;;20.00;42.80;;;;;;5083189;28;20031;-59
2021/01/06 00:13:26;;;;;;;12.82;10.32;;;20.00;42.90;;;;;;5080545;28;20035;-59
2021/01/06 00:15:54;;;;;;;16.08;10.60;;;20.00;43.00;;;;;;5065450;28;20036;-59
2021/01/06 00:18:20;;;;;;;14.77;10.48;;;20.00;43.00;;;;;;5081013;28;20048;-59
2021/01/06 00:20:48;;;;;;;12.55;9.85;;;20.00;43.00;;;;;;5078808;28;20493;-59
2021/01/06 00:23:14;;;;;;;12.60;10.60;;;19.90;43.00;;;;;;5082368;28;20562;-59
2021/01/06 00:25:41;;;;;;;12.10;9.98;;;19.90;42.90;;;;;;5085251;28;20106;-59
2021/01/06 00:28:11;;;;;;;15.77;10.32;;;19.90;43.60;;;;;;5079156;28;20056;-59
2021/01/06 00:30:50;;;;;;;12.35;10.50;;;19.90;43.00;;;;;;5085123;28;20733;-59
2021/01/06 00:33:20;;;;;;;10.70;9.43;;;19.90;43.10;;;;;;5074716;28;20036;-59
2021/01/06 00:35:58;;;;;;;10.23;8.80;;;19.90;43.10;;;;;;5087228;28;20478;-59
2021/01/06 00:38:26;;;;;;;10.52;9.30;;;19.90;43.30;;;;;;5079341;28;20367;-59
2021/01/06 00:40:52;;;;;;;12.32;8.75;;;19.90;43.20;;;;;;5088255;28;20024;-59
2021/01/06 00:43:18;;;;;;;10.70;8.55;;;19.90;43.20;;;;;;5078683;28;20074;-59
2021/01/06 00:45:44;;;;;;;11.18;9.23;;;19.90;43.20;;;;;;5087274;28;20028;-60
2021/01/06 00:48:12;;;;;;;11.73;8.52;;;19.80;43.20;;;;;;5062725;28;20032;-59
2021/01/06 00:50:40;;;;;;;10.32;7.97;;;19.80;43.30;;;;;;5060089;28;20025;-59
2021/01/06 00:53:19;;;;;;;9.93;8.20;;;19.80;43.30;;;;;;5068972;28;20028;-59
2021/01/06 00:55:45;;;;;;;10.77;8.57;;;19.80;43.30;;;;;;5080585;28;20033;-59
2021/01/06 00:58:14;;;;;;;9.55;8.38;;;19.80;43.20;;;;;;5062766;28;20453;-59
2021/01/06 01:00:40;;;;;;;11.88;9.52;;;19.80;43.20;;;;;;5067742;28;20157;-59
2021/01/06 01:03:11;;;;;;;11.25;9.55;;;19.80;43.20;;;;;;5070137;28;20028;-59
2021/01/06 01:05:38;;;;;;;9.75;8.52;;;19.80;43.20;;;;;;5064687;28;20029;-59
2021/01/06 01:08:06;;;;;;;10.55;8.73;;;19.80;43.20;;;;;;5081918;28;20028;-60
2021/01/06 01:10:38;;;;;;;10.13;8.98;;;19.80;43.20;;;;;;5087986;28;20027;-60
2021/01/06 01:13:25;;;;;;;10.25;8.38;;;19.80;43.30;;;;;;5085183;28;20028;-59
2021/01/06 01:15:54;;;;;;;11.48;8.55;;;19.80;43.20;;;;;;5090568;28;20424;-58
2021/01/06 01:18:23;;;;;;;10.70;8.88;;;19.80;43.20;;;;;;5082547;28;20137;-59
2021/01/06 01:20:52;;;;;;;10.80;9.55;;;19.80;43.20;;;;;;5085776;28;20028;-58
2021/01/06 01:23:20;;;;;;;10.68;8.77;;;19.80;43.20;;;;;;5086336;28;20024;-58
2021/01/06 01:25:46;;;;;;;10.32;8.98;;;19.80;43.20;;;;;;5088935;28;20020;-58
2021/01/06 01:28:14;;;;;;;10.02;9.02;;;19.80;43.10;;;;;;5081702;28;20028;-59
2021/01/06 01:30:40;;;;;;;10.13;8.77;;;19.80;43.20;;;;;;5070358;28;20066;-59
2021/01/06 01:33:06;;;;;;;11.00;9.05;;;19.70;43.20;;;;;;5087907;28;20036;-59
2021/01/06 01:35:33;;;;;;;11.43;8.75;;;19.80;43.20;;;;;;5085694;28;20052;-59
2021/01/06 01:38:02;;;;;;;10.20;8.82;;;19.70;43.30;;;;;;5081320;28;20055;-59
2021/01/06 01:40:35;;;;;;;9.02;7.93;;;19.70;43.30;;;;;;5085701;28;20393;-59
2021/01/06 01:43:13;;;;;;;8.85;8.00;;;19.70;43.60;;;;;;5077830;28;20056;-59
2021/01/06 01:45:46;;;;;;;9.00;8.07;;;19.70;43.40;;;;;;5083175;28;20032;-60
2021/01/06 01:48:32;;;;;;;8.55;7.53;;;19.70;43.50;;;;;;5057694;28;20433;-59
2021/01/06 01:51:03;;;;;;;8.93;8.02;;;19.70;43.50;;;;;;5067973;28;20029;-58
2021/01/06 01:53:41;;;;;;;9.35;7.82;;;19.70;43.70;;;;;;5083987;28;20039;-59
2021/01/06 01:56:11;;;;;;;9.70;7.82;;;19.70;43.70;;;;;;5075546;28;21147;-59
2021/01/06 01:58:43;;;;;;;8.90;7.97;;;19.70;43.60;;;;;;5076825;28;20024;-59
2021/01/06 02:01:10;;;;;;;9.00;7.88;;;19.70;43.60;;;;;;5085950;28;20037;-58
2021/01/06 02:03:54;;;;;;;8.40;7.35;;;19.70;43.60;;;;;;5076075;28;20474;-59
2021/01/06 02:06:54;;;;;;;8.60;7.03;;;19.60;43.60;;;;;;5082310;28;20031;-60
2021/01/06 02:09:34;;;;;;;9.15;7.68;;;19.60;43.70;;;;;;5053455;28;20066;-59
2021/01/06 02:12:14;;;;;;;9.95;7.90;;;19.60;43.60;;;;;;5075918;28;20440;-59
2021/01/06 02:14:50;;;;;;;8.82;7.68;;;19.60;43.80;;;;;;5081740;28;20035;-59
2021/01/06 02:17:18;;;;;;;8.18;7.10;;;19.60;43.70;;;;;;5076205;28;20076;-59
2021/01/06 02:19:45;;;;;;;7.60;6.72;;;19.60;43.60;;;;;;5086917;28;20107;-59
2021/01/06 02:22:16;;;;;;;7.95;7.15;;;19.60;44.00;;;;;;5078110;28;20081;-59
2021/01/06 02:24:44;;;;;;;6.93;6.30;;;19.60;44.00;;;;;;5080683;28;20032;-58
2021/01/06 02:27:10;;;;;;;9.00;6.97;;;19.60;44.00;;;;;;5087146;28;20024;-58
2021/01/06 02:29:37;;;;;;;8.70;6.70;;;19.60;44.00;;;;;;5085324;28;20020;-58
2021/01/06 02:32:05;;;;;;;7.45;6.75;;;19.50;43.90;;;;;;5079192;28;20035;-58
2021/01/06 02:34:33;;;;;;;8.18;7.22;;;19.60;44.00;;;;;;5085416;28;20024;-59
2021/01/06 02:36:59;;;;;;;10.85;6.90;;;19.60;43.90;;;;;;5082043;28;20058;-58
2021/01/06 02:39:25;;;;;;;7.55;6.25;;;19.50;44.00;;;;;;5085042;28;20161;-59
2021/01/06 02:41:51;;;;;;;7.97;6.28;;;19.50;44.00;;;;;;5074700;28;20024;-59
2021/01/06 02:44:17;;;;;;;8.82;6.93;;;19.50;44.00;;;;;;5082122;28;20043;-58
2021/01/06 02:46:44;;;;;;;7.10;6.40;;;19.50;44.00;;;;;;5086715;28;20110;-58
2021/01/06 02:49:13;;;;;;;8.82;6.97;;;19.50;44.00;;;;;;5075721;28;20146;-58
2021/01/06 02:51:44;;;;;;;8.73;6.90;;;19.50;44.00;;;;;;5080253;28;20020;-59
2021/01/06 02:54:16;;;;;;;7.97;6.70;;;19.50;44.30;;;;;;5076764;28;20048;-58
2021/01/06 02:56:44;;;;;;;7.35;6.65;;;19.50;44.00;;;;;;5077805;28;20021;-58
2021/01/06 02:59:13;;;;;;;8.02;6.03;;;19.50;44.00;;;;;;5084687;28;20030;-58
2021/01/06 03:01:41;;;;;;;7.20;5.90;;;19.50;44.10;;;;;;5078416;28;20118;-58
2021/01/06 03:04:12;;;;;;;7.47;6.78;;;19.50;44.10;;;;;;5063980;28;20085;-58
2021/01/06 03:06:57;;;;;;;7.35;6.28;;;19.50;44.10;;;;;;5079247;28;20090;-59
2021/01/06 03:09:37;;;;;;;7.90;6.93;;;19.40;44.10;;;;;;5077013;28;20040;-58
2021/01/06 03:12:10;;;;;;;6.90;6.30;;;19.50;44.50;;;;;;5080642;28;20505;-58
2021/01/06 03:14:39;;;;;;;6.90;6.20;;;19.50;44.30;;;;;;5084204;28;20069;-59
2021/01/06 03:17:07;;;;;;;5.93;5.20;;;19.50;44.10;;;;;;5076719;28;20044;-58
2021/01/06 03:19:38;;;;;;;7.13;6.28;;;19.40;44.10;;;;;;5084252;28;20029;-59
2021/01/06 03:22:07;;;;;;;7.05;5.88;;;19.40;44.30;;;;;;5085354;28;20367;-59
2021/01/06 03:24:40;;;;;;;8.43;5.85;;;19.40;44.20;;;;;;5080401;28;20027;-59
2021/01/06 03:27:07;;;;;;;6.13;5.53;;;19.40;44.30;;;;;;5078557;28;20056;-59
2021/01/06 03:29:35;;;;;;;5.97;5.38;;;19.40;44.30;;;;;;5083450;28;20103;-59
2021/01/06 03:32:08;;;;;;;6.40;5.80;;;19.40;44.40;;;;;;5077440;28;20743;-58
2021/01/06 03:34:47;;;;;;;6.57;5.97;;;19.40;44.30;;;;;;5083921;28;20028;-59
2021/01/06 03:37:20;;;;;;;6.32;5.70;;;19.40;44.50;;;;;;5081975;28;20374;-59
2021/01/06 03:40:14;;;;;;;8.65;6.53;;;19.40;44.40;;;;;;5086115;28;20374;-59
2021/01/06 03:42:43;;;;;;;6.32;5.63;;;19.40;44.30;;;;;;5074903;28;20534;-58
2021/01/06 03:45:15;;;;;;;5.88;5.25;;;19.40;44.30;;;;;;5086252;28;20477;-59
2021/01/06 03:47:44;;;;;;;6.10;5.50;;;19.40;44.30;;;;;;5082878;28;20029;-59
2021/01/06 03:50:33;;;;;;;5.93;5.40;;;19.30;44.40;;;;;;5083455;28;20103;-59
2021/01/06 03:53:33;;;;;;;7.97;5.95;;;19.40;44.50;;;;;;5083015;28;20476;-58
2021/01/06 03:56:29;;;;;;;5.75;5.00;;;19.40;44.40;;;;;;5076469;28;20028;-59
2021/01/06 03:59:05;;;;;;;6.90;5.63;;;19.40;44.30;;;;;;5084269;28;20050;-59
2021/01/06 04:01:37;;;;;;;6.40;5.40;;;19.40;44.40;;;;;;5085044;28;20420;-59
2021/01/06 04:04:03;;;;;;;6.15;4.97;;;19.40;44.60;;;;;;5075301;28;20036;-59
2021/01/06 04:06:33;;;;;;;7.07;4.80;;;19.30;44.40;;;;;;5078154;28;20448;-60
2021/01/06 04:09:03;;;;;;;5.93;4.88;;;19.40;44.60;;;;;;5085908;28;20056;-59
2021/01/06 04:11:34;;;;;;;5.63;5.13;;;19.30;44.60;;;;;;5083082;28;20074;-59
2021/01/06 04:14:01;;;;;;;5.25;4.43;;;19.30;44.60;;;;;;5084020;28;20046;-59
2021/01/06 04:16:28;;;;;;;5.82;4.25;;;19.30;44.50;;;;;;5085344;28;20474;-59
2021/01/06 04:18:54;;;;;;;5.15;4.65;;;19.30;44.60;;;;;;5083385;28;20056;-58
2021/01/06 04:21:21;;;;;;;5.70;4.10;;;19.30;44.60;;;;;;5088453;28;20390;-58
2021/01/06 04:23:48;;;;;;;4.70;4.07;;;19.30;44.60;;;;;;5090812;28;20031;-58
2021/01/06 04:26:15;;;;;;;6.47;4.10;;;19.30;44.60;;;;;;5088241;28;20031;-58
2021/01/06 04:28:42;;;;;;;5.75;4.60;;;19.30;44.50;;;;;;5085206;28;20038;-58
2021/01/06 04:31:21;;;;;;;5.50;4.22;;;19.30;44.50;;;;;;5064259;28;20035;-59
2021/01/06 04:33:53;;;;;;;5.68;4.43;;;19.30;44.50;;;;;;5078243;28;20035;-58
2021/01/06 04:36:19;;;;;;;3.83;3.47;;;19.30;44.50;;;;;;5088884;28;20039;-58
2021/01/06 04:38:48;;;;;;;4.43;3.53;;;19.30;44.40;;;;;;5083572;28;20091;-58
2021/01/06 04:41:36;;;;;;;4.00;3.63;;;19.30;44.40;;;;;;5085852;28;20024;-59
2021/01/06 04:44:28;;;;;;;4.72;3.83;;;19.30;44.40;;;;;;5078989;28;20039;-58
2021/01/06 04:47:18;;;;;;;5.15;3.70;;;19.30;44.40;;;;;;5076641;28;20040;-59
2021/01/06 04:49:51;;;;;;;4.07;3.67;;;19.30;44.50;;;;;;5088083;28;20157;-58
2021/01/06 04:52:43;;;;;;;5.55;3.40;;;19.30;45.00;;;;;;5084980;28;20035;-58
2021/01/06 04:55:56;;;;;;;4.10;3.45;;;19.20;44.30;;;;;;5084085;28;20035;-60
2021/01/06 04:58:47;;;;;;;4.25;3.78;;;19.30;44.30;;;;;;5031113;28;20037;-58
2021/01/06 05:01:28;;;;;;;5.22;3.15;;;19.30;44.40;;;;;;5031849;28;20088;-59
2021/01/06 05:04:09;;;;;;;3.58;3.15;;;19.30;44.40;;;;;;5035713;28;20453;-59
2021/01/06 05:06:41;;;;;;;5.95;4.18;;;19.20;44.30;;;;;;5014807;28;20026;-59
2021/01/06 05:09:19;;;;;;;4.60;2.92;;;19.20;44.30;;;;;;5034716;28;20168;-59
2021/01/06 05:11:57;;;;;;;4.55;2.97;;;19.30;44.40;;;;;;5032199;28;20029;-59
2021/01/06 05:14:41;;;;;;;4.53;3.28;;;19.20;44.30;;;;;;5034134;28;20509;-59
2021/01/06 05:17:09;;;;;;;3.80;2.78;;;19.20;44.30;;;;;;5026970;28;20041;-58
2021/01/06 05:19:35;;;;;;;4.00;3.08;;;19.30;44.40;;;;;;5030019;28;20041;-59
2021/01/06 05:22:03;;;;;;;3.97;2.78;;;19.30;44.40;;;;;;5032053;28;20064;-59
2021/01/06 05:24:32;;;;;;;4.80;3.38;;;19.30;44.50;;;;;;5035216;28;20033;-59
2021/01/06 05:27:12;;;;;;;3.45;3.15;;;19.30;44.50;;;;;;5033534;28;20045;-59
2021/01/06 05:29:46;;;;;;;3.60;3.17;;;19.20;44.60;;;;;;5074926;28;20397;-58
2021/01/06 05:32:16;;;;;;;4.07;3.67;;;19.20;44.80;;;;;;5078574;28;20032;-58
2021/01/06 05:34:42;;;;;;;;;;;19.20;45.40;;;;;;5083658;28;20089;-58
2021/01/06 05:37:16;;;;;;;4.68;3.10;;;19.20;44.60;;;;;;5083106;28;19908;-59
2021/01/06 05:39:43;;;;;;;4.25;3.15;;;19.20;44.60;;;;;;5079482;28;20020;-57
2021/01/06 05:42:48;;;;;;;3.28;2.97;;;19.20;44.60;;;;;;5076051;28;20033;-58
2021/01/06 05:45:16;;;;;;;3.92;3.53;;;19.20;44.90;;;;;;5059330;28;20462;-58
2021/01/06 05:48:01;;;;;;;3.40;3.10;;;19.20;44.80;;;;;;5089299;28;20122;-58
2021/01/06 05:50:31;;;;;;;4.72;3.03;;;19.20;44.80;;;;;;5083235;28;20031;-58
2021/01/06 05:53:04;;;;;;;3.75;3.30;;;19.20;45.00;;;;;;5083523;28;20025;-59
2021/01/06 05:55:34;;;;;;;4.20;3.40;;;19.20;44.90;;;;;;5079635;28;20028;-58
2021/01/06 05:58:09;;;;;;;2.40;2.20;;;19.20;44.80;;;;;;5087638;28;20036;-58
2021/01/06 06:00:57;;;;;;;3.60;3.22;;;19.20;44.90;;;;;;5084346;28;20509;-59
2021/01/06 06:03:45;;;;;;;5.30;3.00;;;19.20;45.00;;;;;;5073544;28;20107;-58
2021/01/06 06:06:55;;;;;;;3.33;3.03;;;19.20;44.90;;;;;;5085212;28;20028;-58
2021/01/06 06:09:30;;;;;;;4.72;3.38;;;19.20;45.00;;;;;;5051887;28;20048;-58
2021/01/06 06:12:22;;;;;;;3.88;3.00;;;19.20;45.00;;;;;;5076496;28;20055;-59
2021/01/06 06:15:07;;;;;;;4.63;3.08;;;19.10;44.90;;;;;;5084062;28;20067;-58
2021/01/06 06:17:51;;;;;;;5.47;3.20;;;19.10;45.00;;;;;;5084852;28;20054;-59
2021/01/06 06:20:42;;;;;;;5.03;2.97;;;19.10;45.00;;;;;;5077250;28;20440;-58
2021/01/06 06:23:45;;;;;;;3.67;3.00;;;19.10;45.00;;;;;;5082926;28;20043;-58
2021/01/06 06:26:25;;;;;;;3.50;2.78;;;19.10;45.10;;;;;;5080181;28;20103;-59
2021/01/06 06:29:00;;;;;;;3.50;2.80;;;19.10;45.10;;;;;;5081417;28;20382;-59
2021/01/06 06:31:35;;;;;;;4.75;2.92;;;19.10;45.00;;;;;;5080312;28;20029;-58
2021/01/06 06:34:07;;;;;;;2.65;2.45;;;19.10;45.70;;;;;;5079175;28;20249;-59
2021/01/06 06:36:41;;;;;;;3.75;2.88;;;19.10;45.10;;;;;;5086932;28;20036;-58
2021/01/06 06:39:15;;;;;;;3.20;2.50;;;19.10;45.20;;;;;;5076689;28;20044;-58
2021/01/06 06:41:42;;;;;;;3.70;2.97;;;19.10;45.20;;;;;;5081841;28;20028;-58
2021/01/06 06:44:17;;;;;;;3.25;2.78;;;19.10;45.10;;;;;;5085449;28;20065;-58
2021/01/06 06:46:43;;;;;;;3.05;2.72;;;19.10;45.10;;;;;;5075383;28;20061;-59
2021/01/06 06:49:12;;;;;;;3.10;2.40;;;19.10;45.00;;;;;;5073950;28;20029;-59
2021/01/06 06:51:50;;;;;;;2.58;2.35;;;19.10;45.00;;;;;;5078861;28;20028;-59
2021/01/06 06:54:30;;;;;;;3.47;2.67;;;19.10;45.00;;;;;;5079773;28;20115;-59
2021/01/06 06:57:06;;;;;;;3.17;2.53;;;19.10;44.90;;;;;;5082631;28;20024;-58
2021/01/06 07:00:16;;;;;;;4.15;2.72;;;19.10;44.90;;;;;;5079099;28;20039;-59
2021/01/06 07:02:46;;;;;;;2.75;2.08;;;19.10;44.80;;;;;;5001949;28;20033;-59
2021/01/06 07:05:26;;;;;;;;;;;19.10;44.70;;;;;;4995316;28;20438;-59
2021/01/06 07:07:54;;;;;;;3.33;1.95;;;19.10;44.70;;;;;;5002281;28;19959;-59
2021/01/06 07:10:30;;;;;;;4.35;2.13;;;19.10;44.40;;;;;;5004865;28;20088;-58
2021/01/06 07:13:04;;;;;;;3.97;2.45;;;19.10;44.50;;;;;;5000778;28;20022;-58
2021/01/06 07:15:48;;;;;;;3.63;3.00;;;19.10;44.50;;;;;;5000804;28;20065;-59
2021/01/06 07:18:39;;;;;;;4.85;3.03;;;19.10;44.50;;;;;;5002673;28;20062;-60
2021/01/06 07:21:17;;;;;;;6.30;3.78;;;19.10;44.50;;;;;;5005588;28;20037;-58
2021/01/06 07:24:01;;;;;;;5.68;3.22;;;19.10;44.50;;;;;;5006088;28;20045;-58
2021/01/06 07:26:43;;;;;;;3.42;3.13;;;19.10;44.50;;;;;;4999058;28;20042;-59
2021/01/06 07:29:13;;;;;;;5.88;4.75;;;19.10;44.50;;;;;;5003575;28;20472;-59
2021/01/06 07:31:58;;;;;;;5.78;4.72;;;19.00;44.40;;;;;;4989461;28;20081;-58
2021/01/06 07:34:42;;;;;;;7.10;5.50;;;19.10;44.60;;;;;;5066285;28;20421;-59
2021/01/06 07:37:34;;;;;;;7.38;5.78;;;19.10;44.70;;;;;;5073116;28;20028;-55
2021/01/06 07:40:23;;;;;;;12.02;9.50;;;19.10;44.60;;;;;;5064477;28;20375;-60
2021/01/06 07:43:28;;;;;;;11.15;8.85;;;19.10;44.60;;;;;;5081180;28;20115;-59
2021/01/06 07:46:00;;;;;;;23.30;20.80;;;19.10;44.60;;;;;;5077478;28;20044;-59
2021/01/06 07:48:52;;;;;;;115.05;102.45;;;19.10;44.60;;;;;;5079461;28;20028;-58
2021/01/06 07:51:32;;;;;;;116.30;102.28;;;19.10;44.80;;;;;;5080605;28;20410;-49
2021/01/06 07:54:15;;;;;;;117.20;104.32;;;19.10;44.90;;;;;;5083937;28;20427;-49
2021/01/06 07:57:33;;;;;;;122.95;106.93;;;19.10;44.90;;;;;;5089386;28;20024;-50
2021/01/06 08:00:06;;;;;;;116.45;101.45;;;19.10;44.90;;;;;;5064745;28;20026;-50
2021/01/06 08:02:56;;;;;;;112.97;100.28;;;19.10;44.90;;;;;;5074435;28;20031;-58
2021/01/06 08:05:30;;;;;;;110.72;98.63;;;19.20;45.00;;;;;;5083695;28;20138;-58
2021/01/06 08:08:13;;;;;;;106.05;94.38;;;19.10;45.10;;;;;;5089842;28;20043;-59
2021/01/06 08:10:40;;;;;;;108.38;95.57;;;19.10;45.30;;;;;;5064815;28;20170;-59
2021/01/06 08:13:19;;;;;;;110.93;98.90;;;19.20;45.20;;;;;;5088593;28;20017;-60
2021/01/06 08:15:49;;;;;;;98.93;88.10;;;19.20;45.30;;;;;;5084405;28;20039;-60
2021/01/06 08:18:30;;;;;;;;;;;19.20;45.50;;;;;;5081121;28;20143;-59
2021/01/06 08:21:10;;;;;;;91.43;78.90;;;19.20;45.40;;;;;;5081604;28;19975;-60
2021/01/06 08:23:57;;;;;;;77.50;67.43;;;19.20;45.30;;;;;;5076076;28;20020;-60
2021/01/06 08:26:31;;;;;;;70.68;62.88;;;19.20;45.60;;;;;;5082904;28;20557;-60
2021/01/06 08:29:13;;;;;;;67.30;60.00;;;19.20;45.90;;;;;;5081719;28;20024;-60
2021/01/06 08:31:39;;;;;;;60.58;53.53;;;19.20;45.90;;;;;;5085178;28;20020;-60
2021/01/06 08:34:06;;;;;;;62.38;46.10;;;19.20;45.80;;;;;;5085860;28;20162;-59
2021/01/06 08:36:37;;;;;;;58.08;50.95;;;19.20;45.90;;;;;;5087423;28;20038;-59
2021/01/06 08:39:23;;;;;;;77.88;68.28;;;19.20;46.00;;;;;;5086294;28;20032;-59
2021/01/06 08:41:50;;;;;;;73.90;65.65;;;19.20;46.10;;;;;;5071559;28;20084;-56
2021/01/06 08:44:31;;;;;;;77.20;67.90;;;19.20;46.30;;;;;;5087455;28;20020;-55
2021/01/06 08:46:58;;;;;;;;;;;19.20;46.50;;;;;;5090799;28;20047;-56
2021/01/06 08:49:31;;;;;;;61.75;53.25;;;19.20;46.10;;;;;;5082221;28;20049;-56
2021/01/06 08:52:14;;;;;;;60.67;53.45;;;19.30;47.00;;;;;;5077163;28;20084;-56
2021/01/06 08:54:40;;;;;;;55.70;47.58;;;19.30;46.50;;;;;;5082338;28;20076;-56
2021/01/06 08:57:21;;;;;;;51.33;45.75;;;19.30;46.60;;;;;;5083875;28;20024;-55
2021/01/06 08:59:47;;;;;;;54.20;46.30;;;19.30;47.00;;;;;;5082383;28;20032;-55
2021/01/06 09:02:36;;;;;;;54.55;47.70;;;19.30;46.80;;;;;;5086951;28;20032;-55
2021/01/06 09:05:02;;;;;;;60.53;51.92;;;19.40;46.90;;;;;;5083944;28;20067;-54
2021/01/06 09:07:33;;;;;;;60.40;53.60;;;19.40;46.70;;;;;;5081287;28;20086;-55
2021/01/06 09:10:37;;;;;;;61.40;54.10;;;19.50;46.80;;;;;;5080854;28;20030;-58
2021/01/06 09:13:10;;;;;;;57.80;48.60;;;19.50;46.80;;;;;;5088569;28;20032;-59
2021/01/06 09:15:50;;;;;;;52.90;47.08;;;19.50;46.70;;;;;;5082355;28;20025;-57
2021/01/06 09:18:26;;;;;;;50.22;43.45;;;19.60;46.90;;;;;;5077704;28;20052;-58
2021/01/06 09:21:21;;;;;;;37.65;32.22;;;19.60;47.10;;;;;;5076020;28;20033;-59
2021/01/06 09:23:53;;;;;;;26.02;23.23;;;19.60;47.40;;;;;;5083942;28;20031;-59
2021/01/06 09:26:24;;;;;;;22.08;19.10;;;19.60;47.40;;;;;;5087347;28;20052;-59
2021/01/06 09:28:52;;;;;;;;;;;19.70;47.30;;;;;;5065990;28;20070;-60
2021/01/06 09:31:19;;;;;;;14.82;12.40;;;19.70;46.80;;;;;;5081151;28;20374;-60
2021/01/06 09:33:46;;;;;;;69.88;57.30;;;19.70;46.00;;;;;;5076734;28;20028;-60
2021/01/06 09:36:13;;;;;;;44.85;38.33;;;19.70;45.70;;;;;;5091765;28;20051;-60
2021/01/06 09:38:51;;;;;;;31.25;22.70;;;19.70;45.50;;;;;;5077337;28;20033;-61
2021/01/06 09:41:23;;;;;;;16.67;13.60;;;19.60;45.40;;;;;;5082044;28;20375;-61
2021/01/06 09:43:57;;;;;;;34.25;29.33;;;19.60;44.60;;;;;;5083785;28;20051;-60
2021/01/06 09:46:29;;;;;;;13.43;10.75;;;19.60;44.40;;;;;;5067441;28;20442;-59
2021/01/06 09:48:59;;;;;;;12.57;8.63;;;19.60;43.80;;;;;;5085035;28;20032;-59
2021/01/06 09:51:27;;;;;;;9.63;5.22;;;19.50;43.80;;;;;;5084806;28;20083;-59
2021/01/06 09:53:58;;;;;;;5.95;3.35;;;19.50;43.70;;;;;;5080855;28;20039;-60
2021/01/06 09:56:26;;;;;;;23.70;13.85;;;19.50;43.30;;;;;;5087176;28;20468;-53
2021/01/06 09:58:54;;;;;;;17.42;9.23;;;19.50;43.10;;;;;;5081945;28;20147;-57
2021/01/06 10:01:47;;;;;;;11.05;8.93;;;19.50;43.20;;;;;;5083675;28;20032;-54
2021/01/06 10:04:25;;;;;;;16.85;8.43;;;19.40;43.00;;;;;;5088953;28;20054;-56
2021/01/06 10:07:23;;;;;;;58.08;46.25;;;19.30;43.10;;;;;;5088568;28;20056;-59
2021/01/06 10:09:58;;;;;;;42.63;32.75;;;19.30;43.70;;;;;;5027483;28;20120;-61
2021/01/06 10:12:39;;;;;;;23.35;19.65;;;19.20;43.30;;;;;;5028950;28;20030;-60
2021/01/06 10:15:26;;;;;;;16.38;12.48;;;19.20;43.60;;;;;;5028609;28;20069;-61
2021/01/06 10:18:01;;;;;;;14.43;9.30;;;19.20;43.40;;;;;;5029108;28;20474;-60
2021/01/06 10:20:48;;;;;;;8.00;6.20;;;19.10;42.90;;;;;;5028622;28;20387;-60
2021/01/06 10:23:37;;;;;;;12.18;5.50;;;19.00;42.90;;;;;;5028382;28;20032;-58
2021/01/06 10:26:29;;;;;;;9.57;5.30;;;19.00;43.30;;;;;;5029489;28;20463;-58
2021/01/06 10:28:56;;;;;;;4.80;3.22;;;18.90;43.80;;;;;;5027754;28;20096;-59
2021/01/06 10:31:27;;;;;;;7.35;1.95;;;18.90;43.70;;;;;;5011583;28;20116;-58
2021/01/06 10:34:10;;;;;;;6.10;2.03;;;18.90;42.90;;;;;;5027744;28;20135;-58
2021/01/06 10:37:04;;;;;;;6.03;1.67;;;18.80;43.00;;;;;;5013836;28;20521;-59
2021/01/06 10:39:41;;;;;;;6.97;2.17;;;18.80;43.30;;;;;;5025155;28;20068;-61
2021/01/06 10:42:32;;;;;;;4.13;2.10;;;18.80;43.30;;;;;;5027621;28;20033;-59
2021/01/06 10:45:37;;;;;;;8.75;2.20;;;18.80;43.30;;;;;;5027046;28;20096;-60
2021/01/06 10:48:03;;;;;;;5.63;2.15;;;18.80;43.00;;;;;;5085838;28;20397;-60
2021/01/06 10:50:29;;;;;;;4.13;1.75;;;18.70;42.70;;;;;;5085974;28;20031;-60
2021/01/06 10:53:15;;;;;;;2.20;1.20;;;18.80;42.70;;;;;;5065692;28;20033;-60
2021/01/06 10:55:53;;;;;;;5.60;1.85;;;18.70;42.80;;;;;;5082537;28;20025;-59
2021/01/06 10:58:41;;;;;;;4.35;1.73;;;18.70;43.30;;;;;;5085863;28;20048;-60
2021/01/06 11:01:10;;;;;;;3.22;1.65;;;18.60;42.70;;;;;;5086631;28;20059;-59
2021/01/06 11:04:00;;;;;;;4.70;1.67;;;18.70;42.70;;;;;;5081656;28;20393;-58
2021/01/06 11:06:45;;;;;;;19.23;10.55;;;18.70;42.40;;;;;;5081410;28;20035;-54
2021/01/06 11:09:40;;;;;;;16.92;14.93;;;18.70;42.30;;;;;;5078549;28;20127;-54
2021/01/06 11:12:35;;;;;;;20.70;16.55;;;18.70;42.30;;;;;;5075363;28;20112;-54
2021/01/06 11:15:13;;;;;;;17.65;13.85;;;18.70;42.30;;;;;;5076233;28;20059;-54
2021/01/06 11:17:43;;;;;;;15.88;14.00;;;18.80;42.40;;;;;;5072988;28;20128;-55
2021/01/06 11:20:39;;;;;;;16.23;12.95;;;18.80;42.50;;;;;;5080251;28;20059;-56
2021/01/06 11:23:30;;;;;;;14.30;11.75;;;18.80;42.60;;;;;;5080066;28;20020;-56
2021/01/06 11:25:59;;;;;;;12.35;11.07;;;18.80;42.60;;;;;;5085337;28;20028;-55
2021/01/06 11:28:55;;;;;;;17.70;10.98;;;18.90;42.60;;;;;;5077646;28;20024;-54
2021/01/06 11:31:27;;;;;;;11.88;9.43;;;18.90;42.40;;;;;;5086388;28;20035;-54
2021/01/06 11:34:21;;;;;;;12.60;9.65;;;19.00;42.40;;;;;;5085265;28;20082;-51
2021/01/06 11:36:51;;;;;;;12.02;8.95;;;19.00;42.50;;;;;;5082909;28;20025;-51
2021/01/06 11:39:40;;;;;;;9.60;8.60;;;19.00;42.30;;;;;;5068761;28;20032;-53
2021/01/06 11:42:15;;;;;;;12.27;8.63;;;19.10;42.20;;;;;;5071396;28;20044;-52
2021/01/06 11:44:43;;;;;;;21.52;9.30;;;19.10;42.10;;;;;;5068993;28;20078;-54
2021/01/06 11:47:50;;;;;;;16.83;9.07;;;19.20;41.90;;;;;;5086374;28;20062;-57
2021/01/06 11:50:42;;;;;;;16.08;10.77;;;19.20;41.90;;;;;;4996436;28;20485;-51
2021/01/06 11:53:26;;;;;;;20.27;13.20;;;19.20;41.90;;;;;;5009316;28;20034;-51
2021/01/06 11:56:02;;;;;;;20.75;14.32;;;19.20;41.80;;;;;;4989153;28;20449;-56
2021/01/06 11:58:54;;;;;;;21.77;14.93;;;19.20;41.70;;;;;;5005196;28;20780;-51
2021/01/06 12:01:53;;;;;;;27.02;17.73;;;19.30;41.70;;;;;;4998440;28;20072;-53
2021/01/06 12:04:44;;;;;;;31.90;23.25;;;19.30;41.50;;;;;;5003470;28;20168;-52
2021/01/06 12:07:33;;;;;;;44.35;35.25;;;19.30;41.60;;;;;;5003330;28;20042;-51
2021/01/06 12:10:35;;;;;;;45.97;37.17;;;19.30;41.60;;;;;;4980606;28;20057;-49
2021/01/06 12:13:19;;;;;;;42.60;32.95;;;19.30;41.40;;;;;;5003850;28;20129;-50
2021/01/06 12:15:53;;;;;;;35.47;27.80;;;19.40;41.20;;;;;;5000629;28;20038;-52
2021/01/06 12:18:28;;;;;;;34.92;28.45;;;19.40;41.10;;;;;;5001722;28;20447;-52
2021/01/06 12:20:55;;;;;;;34.60;25.23;;;19.40;41.00;;;;;;5040504;28;20063;-51
2021/01/06 12:23:38;;;;;;;29.60;25.23;;;19.40;41.20;;;;;;5078403;28;20023;-51
2021/01/06 12:26:26;;;;;;;26.95;22.23;;;19.50;41.20;;;;;;5074818;28;20012;-52
2021/01/06 12:28:57;;;;;;;29.33;22.25;;;19.50;41.30;;;;;;5085948;28;20466;-49
2021/01/06 12:31:39;;;;;;;24.65;19.65;;;19.50;41.50;;;;;;5085832;28;20363;-51
2021/01/06 12:34:23;;;;;;;24.60;19.45;;;19.50;41.40;;;;;;5084094;28;20099;-52
2021/01/06 12:37:11;;;;;;;42.80;34.00;;;19.50;41.30;;;;;;5085628;28;20020;-52
2021/01/06 12:39:58;;;;;;;39.28;34.58;;;19.50;41.40;;;;;;5079336;28;20024;-50
2021/01/06 12:42:49;;;;;;;42.97;37.67;;;19.60;41.40;;;;;;5084321;28;20020;-50
2021/01/06 12:45:31;;;;;;;40.05;33.40;;;19.60;41.40;;;;;;5065911;28;20028;-51
2021/01/06 12:48:16;;;;;;;36.20;30.80;;;19.70;41.50;;;;;;5061033;28;20033;-50
2021/01/06 12:50:51;;;;;;;30.50;24.50;;;19.60;41.40;;;;;;5076175;28;20028;-51
2021/01/06 12:53:40;;;;;;;28.10;25.02;;;19.70;41.50;;;;;;5052202;28;20044;-50
2021/01/06 12:56:22;;;;;;;31.63;27.42;;;19.70;41.60;;;;;;5079655;28;20033;-50
2021/01/06 12:59:01;;;;;;;31.40;26.77;;;19.70;41.70;;;;;;5078793;28;20056;-50
2021/01/06 13:01:50;;;;;;;25.52;21.35;;;19.70;41.70;;;;;;5064717;28;20016;-51
2021/01/06 13:04:20;;;;;;;25.77;21.15;;;19.80;41.70;;;;;;5077836;28;20075;-51
2021/01/06 13:06:55;;;;;;;23.95;20.40;;;19.80;41.70;;;;;;5067430;28;20077;-51
2021/01/06 13:09:57;;;;;;;19.58;17.35;;;19.70;41.80;;;;;;5078940;28;20378;-56
2021/01/06 13:12:45;;;;;;;19.75;16.25;;;19.70;41.70;;;;;;5051681;28;20037;-54
2021/01/06 13:15:42;;;;;;;21.88;16.92;;;19.80;41.70;;;;;;5085499;28;20065;-54
2021/01/06 13:18:16;;;;;;;21.20;18.10;;;19.80;41.80;;;;;;5064414;28;20051;-55
2021/01/06 13:21:00;;;;;;;19.95;17.30;;;19.80;41.60;;;;;;5070301;28;20032;-55
2021/01/06 13:24:13;;;;;;;15.98;12.63;;;19.80;41.70;;;;;;5066543;28;20024;-55
2021/01/06 13:26:59;;;;;;;15.40;12.10;;;19.90;41.80;;;;;;4977718;28;20125;-55
2021/01/06 13:29:31;;;;;;;15.95;13.23;;;19.90;41.70;;;;;;4974080;28;20230;-54